createdAt,value
2019-02-07T00:01:07.770Z,101093.63
2019-02-07T00:03:37.609Z,101091.69
2019-02-07T00:06:07.444Z,101092.48
2019-02-07T00:08:37.834Z,101081.22
2019-02-07T00:11:07.505Z,101078.69
2019-02-07T00:13:37.366Z,101076.52
2019-02-07T00:16:07.015Z,101074.80
2019-02-07T00:18:36.746Z,101070.61
2019-02-07T00:21:06.804Z,101064.45
2019-02-07T00:23:36.545Z,101065.02
2019-02-07T00:26:06.257Z,101069.93
2019-02-07T00:28:35.977Z,101060.22
2019-02-07T00:31:05.811Z,101055.16
2019-02-07T00:33:35.983Z,101052.37
2019-02-07T00:36:05.898Z,101051.72
2019-02-07T00:38:35.517Z,101050.91
2019-02-07T00:41:05.451Z,101049.42
2019-02-07T00:43:35.168Z,101050.54
2019-02-07T00:46:05.584Z,101042.57
2019-02-07T00:48:35.206Z,101036.05
2019-02-07T00:51:05.125Z,101040.23
2019-02-07T00:53:34.766Z,101031.90
2019-02-07T00:56:04.511Z,101028.76
2019-02-07T00:58:34.287Z,101028.67
2019-02-07T01:01:03.976Z,101030.77
2019-02-07T01:03:33.741Z,101041.38
2019-02-07T01:06:03.390Z,101036.39
2019-02-07T01:08:33.108Z,101031.83
2019-02-07T01:11:03.157Z,101027.31
2019-02-07T01:13:32.812Z,101021.52
2019-02-07T01:16:02.982Z,101014.47
2019-02-07T01:18:32.594Z,101004.58
2019-02-07T01:21:02.304Z,101001.83
2019-02-07T01:23:32.063Z,100996.60
2019-02-07T01:26:02.149Z,100988.31
2019-02-07T01:28:31.898Z,100988.88
2019-02-07T01:31:01.916Z,100987.37
2019-02-07T01:33:31.568Z,100983.74
2019-02-07T01:36:01.093Z,100990.97
2019-02-07T01:38:30.788Z,100985.98
2019-02-07T01:41:00.475Z,100982.47
2019-02-07T01:43:30.405Z,100971.21
2019-02-07T01:46:00.118Z,100978.44
2019-02-07T01:48:29.878Z,100979.16
2019-02-07T01:50:59.630Z,100973.53
2019-02-07T01:53:29.201Z,100973.93
2019-02-07T01:55:59.143Z,100973.36
2019-02-07T01:58:28.862Z,100976.59
2019-02-07T02:00:58.441Z,100976.91
2019-02-07T02:03:28.179Z,100965.17
2019-02-07T02:05:57.819Z,100963.88
2019-02-07T02:08:27.549Z,100957.38
2019-02-07T02:10:57.304Z,100948.05
2019-02-07T02:13:26.952Z,100933.91
2019-02-07T02:15:56.587Z,100937.86
2019-02-07T02:18:26.205Z,100935.20
2019-02-07T02:20:56.108Z,100934.63
2019-02-07T02:23:25.809Z,100931.09
2019-02-07T02:25:55.623Z,100917.98
2019-02-07T02:28:25.739Z,100914.48
2019-02-07T02:30:55.468Z,100908.19
2019-02-07T02:33:25.240Z,100903.53
2019-02-07T02:35:54.791Z,100905.70
2019-02-07T02:38:24.619Z,100898.78
2019-02-07T02:40:54.558Z,100903.44
2019-02-07T02:43:24.574Z,100905.61
2019-02-07T02:45:54.361Z,100895.25
2019-02-07T02:48:24.387Z,100883.28
2019-02-07T02:50:53.904Z,100884.11
2019-02-07T02:53:23.541Z,100873.39
2019-02-07T02:55:53.354Z,100869.09
2019-02-07T02:58:23.206Z,100871.66
2019-02-07T03:00:57.426Z,100867.55
2019-02-07T03:03:34.793Z,100869.79
2019-02-07T03:06:24.420Z,100871.17
2019-02-07T03:09:11.877Z,100868.27
2019-02-07T03:11:59.476Z,100866.23
2019-02-07T03:14:33.349Z,100863.36
2019-02-07T03:17:07.137Z,100867.19
2019-02-07T03:19:41.190Z,100865.68
2019-02-07T03:22:14.871Z,100856.69
2019-02-07T03:24:56.471Z,100843.77
2019-02-07T03:27:27.629Z,100845.53
2019-02-07T03:33:04.917Z,100835.09
2019-02-07T03:35:51.981Z,100829.95
2019-02-07T03:38:23.172Z,100827.78
2019-02-07T03:40:54.544Z,100816.94
2019-02-07T03:43:32.362Z,100814.68
2019-02-07T03:46:06.186Z,100820.88
2019-02-07T03:48:46.177Z,100814.20
2019-02-07T03:51:20.313Z,100810.00
2019-02-07T03:53:56.953Z,100805.84
2019-02-07T03:56:31.739Z,100811.60
2019-02-07T03:59:01.026Z,100806.13
2019-02-07T04:01:32.581Z,100801.95
2019-02-07T04:04:13.876Z,100805.45
2019-02-07T04:06:47.830Z,100798.86
2019-02-07T04:09:18.984Z,100806.73
2019-02-07T04:11:56.267Z,100797.40
2019-02-07T04:14:42.791Z,100798.91
2019-02-07T04:17:30.097Z,100802.21
2019-02-07T04:20:15.983Z,100800.57
2019-02-07T04:23:02.373Z,100795.08
2019-02-07T04:25:45.877Z,100792.68
2019-02-07T04:28:25.645Z,100794.58
2019-02-07T04:30:59.759Z,100783.25
2019-02-07T04:33:30.950Z,100784.84
2019-02-07T04:36:02.110Z,100780.55
2019-02-07T04:38:36.214Z,100783.91
2019-02-07T04:41:19.244Z,100772.58
2019-02-07T04:43:53.381Z,100761.84
2019-02-07T04:46:27.576Z,100760.95
2019-02-07T04:48:58.804Z,100752.20
2019-02-07T04:51:32.675Z,100753.88
2019-02-07T04:54:09.535Z,100755.07
2019-02-07T04:56:40.721Z,100747.47
2019-02-07T04:59:11.878Z,100743.13
2019-02-07T05:01:45.661Z,100738.58
2019-02-07T05:04:34.649Z,100739.16
2019-02-07T05:07:08.719Z,100726.73
2019-02-07T05:09:45.310Z,100722.27
2019-02-07T05:12:22.225Z,100721.48
2019-02-07T05:15:08.783Z,100728.83
2019-02-07T05:17:42.994Z,100730.69
2019-02-07T05:20:30.413Z,100728.78
2019-02-07T05:23:07.694Z,100714.77
2019-02-07T05:25:53.609Z,100716.22
2019-02-07T05:28:40.883Z,100708.70
2019-02-07T05:31:12.060Z,100709.64
2019-02-07T05:33:47.738Z,100702.03
2019-02-07T05:36:18.969Z,100698.75
2019-02-07T05:38:50.134Z,100690.34
2019-02-07T05:41:19.823Z,100696.36
2019-02-07T05:43:56.819Z,100691.14
2019-02-07T05:46:29.191Z,100687.78
2019-02-07T05:49:18.668Z,100697.95
2019-02-07T05:51:49.844Z,100697.78
2019-02-07T05:54:32.936Z,100686.72
2019-02-07T05:57:02.371Z,100685.35
2019-02-07T05:59:33.518Z,100688.14
2019-02-07T06:02:20.516Z,100687.17
2019-02-07T06:04:57.339Z,100684.44
2019-02-07T06:07:45.266Z,100680.84
2019-02-07T06:10:22.376Z,100673.06
2019-02-07T06:13:05.329Z,100668.55
2019-02-07T06:15:39.199Z,100667.98
2019-02-07T06:18:09.198Z,100679.92
2019-02-07T06:20:45.872Z,100671.43
2019-02-07T06:23:17.037Z,100663.69
2019-02-07T06:26:04.308Z,100664.41
2019-02-07T06:28:41.712Z,100655.86
2019-02-07T06:31:21.904Z,100654.58
2019-02-07T06:33:53.079Z,100658.85
2019-02-07T06:36:28.072Z,100653.54
2019-02-07T06:38:57.350Z,100649.23
2019-02-07T06:41:28.500Z,100638.81
2019-02-07T06:44:22.415Z,100643.28
2019-02-07T06:47:13.573Z,100646.91
2019-02-07T06:49:50.817Z,100644.91
2019-02-07T06:52:29.105Z,100640.02
2019-02-07T06:55:02.902Z,100633.33
2019-02-07T06:57:42.803Z,100631.98
2019-02-07T07:00:20.798Z,100620.80
2019-02-07T07:03:03.892Z,100622.09
2019-02-07T07:05:38.022Z,100623.26
2019-02-07T07:08:15.068Z,100623.18
2019-02-07T07:10:51.933Z,100616.12
2019-02-07T07:13:32.059Z,100614.16
2019-02-07T07:16:09.247Z,100622.91
2019-02-07T07:18:56.429Z,100617.84
2019-02-07T07:21:33.471Z,100623.22
2019-02-07T07:24:18.010Z,100616.59
2019-02-07T07:26:58.125Z,100626.31
2019-02-07T07:29:31.998Z,100618.11
2019-02-07T07:32:08.620Z,100608.98
2019-02-07T07:34:55.827Z,100606.80
2019-02-07T07:37:39.082Z,100619.13
2019-02-07T07:40:30.227Z,100616.78
2019-02-07T07:43:00.211Z,100612.87
2019-02-07T07:45:43.141Z,100608.98
2019-02-07T07:48:18.665Z,100606.34
2019-02-07T07:51:01.758Z,100599.96
2019-02-07T07:53:32.935Z,100592.98
2019-02-07T07:56:04.943Z,100589.27
2019-02-07T07:58:36.113Z,100581.77
2019-02-07T08:01:24.735Z,100567.06
2019-02-07T08:04:11.692Z,100575.95
2019-02-07T08:06:42.956Z,100579.73
2019-02-07T08:09:20.116Z,100565.92
2019-02-07T08:11:54.281Z,100560.69
2019-02-07T08:14:31.420Z,100557.84
2019-02-07T08:17:08.774Z,100549.89
2019-02-07T08:19:47.389Z,100550.84
2019-02-07T08:22:18.556Z,100552.33
2019-02-07T08:24:49.786Z,100545.15
2019-02-07T08:27:20.940Z,100536.14
2019-02-07T08:29:55.203Z,100540.88
2019-02-07T08:32:38.251Z,100533.49
2019-02-07T08:35:26.114Z,100533.91
2019-02-07T08:38:15.301Z,100526.11
2019-02-07T08:41:02.296Z,100527.33
2019-02-07T08:43:33.455Z,100529.91
2019-02-07T08:46:20.363Z,100513.84
2019-02-07T08:49:01.087Z,100503.03
2019-02-07T08:51:48.389Z,100511.63
2019-02-07T08:57:00.885Z,100496.59
2019-02-07T08:59:32.040Z,100492.49
2019-02-07T09:02:05.968Z,100499.20
2019-02-07T09:04:52.495Z,100487.16
2019-02-07T09:07:32.294Z,100483.73
2019-02-07T09:10:03.487Z,100490.09
2019-02-07T09:12:50.745Z,100488.05
2019-02-07T09:15:28.048Z,100484.25
2019-02-07T09:18:15.465Z,100467.56
2019-02-07T09:21:02.818Z,100473.35
2019-02-07T09:23:32.125Z,100465.88
2019-02-07T09:26:11.918Z,100465.41
2019-02-07T09:28:46.085Z,100459.78
2019-02-07T09:31:17.254Z,100459.43
2019-02-07T09:34:04.829Z,100447.96
2019-02-07T09:36:38.770Z,100451.64
2019-02-07T09:39:11.248Z,100457.20
2019-02-07T09:41:57.741Z,100456.42
2019-02-07T09:44:45.234Z,100447.98
2019-02-07T09:47:23.520Z,100452.41
2019-02-07T09:50:00.459Z,100447.86
2019-02-07T09:52:31.615Z,100447.70
2019-02-07T09:55:08.543Z,100449.52
2019-02-07T09:57:48.395Z,100456.34
2019-02-07T10:00:20.289Z,100461.03
2019-02-07T10:03:06.438Z,100456.64
2019-02-07T10:05:49.982Z,100448.59
2019-02-07T10:08:25.021Z,100423.47
2019-02-07T10:10:56.233Z,100432.01
2019-02-07T10:13:36.607Z,100429.58
2019-02-07T10:16:13.740Z,100427.97
2019-02-07T10:18:44.909Z,100423.11
2019-02-07T10:21:21.964Z,100420.83
2019-02-07T10:23:56.471Z,100410.02
2019-02-07T10:26:31.542Z,100414.23
2019-02-07T10:29:07.290Z,100400.80
2019-02-07T10:31:48.198Z,100399.51
2019-02-07T10:34:30.938Z,100384.30
2019-02-07T10:37:02.084Z,100379.22
2019-02-07T10:39:34.090Z,100371.39
2019-02-07T10:42:14.528Z,100362.23
2019-02-07T10:44:43.817Z,100370.59
2019-02-07T10:47:17.715Z,100367.24
2019-02-07T10:49:58.982Z,100374.24
2019-02-07T10:52:27.605Z,100375.91
2019-02-07T10:54:58.769Z,100369.16
2019-02-07T10:57:41.488Z,100356.99
2019-02-07T11:00:35.753Z,100355.63
2019-02-07T11:03:16.353Z,100349.52
2019-02-07T11:06:03.756Z,100348.80
2019-02-07T11:08:37.651Z,100343.41
2019-02-07T11:11:21.072Z,100326.92
2019-02-07T11:13:55.020Z,100323.43
2019-02-07T11:16:42.922Z,100325.15
2019-02-07T11:19:32.530Z,100319.69
2019-02-07T11:22:16.075Z,100311.50
2019-02-07T11:25:03.780Z,100315.37
2019-02-07T11:27:33.087Z,100301.30
2019-02-07T11:30:19.031Z,100299.00
2019-02-07T11:33:06.661Z,100297.73
2019-02-07T11:35:40.542Z,100285.98
2019-02-07T11:38:24.249Z,100275.72
2019-02-07T11:40:58.223Z,100273.16
2019-02-07T11:43:35.307Z,100268.23
2019-02-07T11:46:21.439Z,100263.00
2019-02-07T11:49:06.991Z,100276.67
2019-02-07T11:51:37.460Z,100264.22
2019-02-07T11:54:20.753Z,100259.73
2019-02-07T11:57:08.448Z,100254.84
2019-02-07T11:59:56.254Z,100269.95
2019-02-07T12:02:43.717Z,100262.79
2019-02-07T12:05:24.090Z,100255.42
2019-02-07T12:07:55.522Z,100245.83
2019-02-07T12:10:26.661Z,100238.36
2019-02-07T12:13:16.313Z,100259.82
2019-02-07T12:15:56.570Z,100269.22
2019-02-07T12:18:39.904Z,100260.14
2019-02-07T12:21:13.496Z,100263.75
2019-02-07T12:23:47.495Z,100256.94
2019-02-07T12:26:19.023Z,100249.27
2019-02-07T12:28:50.273Z,100237.62
2019-02-07T12:31:30.670Z,100250.59
2019-02-07T12:33:59.974Z,100252.66
2019-02-07T12:36:31.995Z,100246.11
2019-02-07T12:39:10.448Z,100227.50
2019-02-07T12:41:57.761Z,100232.12
2019-02-07T12:44:47.269Z,100230.59
2019-02-07T12:47:16.747Z,100240.34
2019-02-07T12:49:56.395Z,100223.06
2019-02-07T12:52:36.471Z,100218.02
2019-02-07T12:55:10.936Z,100222.88
2019-02-07T12:57:51.143Z,100217.66
2019-02-07T13:00:37.227Z,100213.31
2019-02-07T13:03:17.820Z,100203.02
2019-02-07T13:05:49.377Z,100204.69
2019-02-07T13:08:29.175Z,100196.71
2019-02-07T13:11:12.523Z,100197.06
2019-02-07T13:13:43.686Z,100192.66
2019-02-07T13:16:14.914Z,100181.02
2019-02-07T13:18:58.297Z,100180.14
2019-02-07T13:21:35.279Z,100187.89
2019-02-07T13:24:06.614Z,100205.48
2019-02-07T13:26:38.683Z,100212.72
2019-02-07T13:29:15.721Z,100204.34
2019-02-07T13:31:55.639Z,100210.83
2019-02-07T13:34:43.157Z,100210.97
2019-02-07T13:37:23.254Z,100200.78
2019-02-07T13:40:10.311Z,100203.80
2019-02-07T13:43:00.148Z,100211.78
2019-02-07T13:45:34.190Z,100217.16
2019-02-07T13:48:09.334Z,100206.12
2019-02-07T13:50:40.939Z,100214.99
2019-02-07T13:53:19.340Z,100221.39
2019-02-07T13:56:05.426Z,100217.47
2019-02-07T13:58:36.577Z,100225.62
2019-02-07T14:01:07.944Z,100225.16
2019-02-07T14:03:49.164Z,100219.94
2019-02-07T14:06:20.582Z,100225.16
2019-02-07T14:08:54.493Z,100220.90
2019-02-07T14:11:43.755Z,100225.70
2019-02-07T14:14:26.586Z,100230.42
2019-02-07T14:16:57.756Z,100219.22
2019-02-07T14:19:29.771Z,100220.41
2019-02-07T14:22:02.360Z,100238.03
2019-02-07T14:24:33.506Z,100235.86
2019-02-07T14:27:21.439Z,100234.15
2019-02-07T14:30:07.389Z,100234.11
2019-02-07T14:32:56.736Z,100233.13
2019-02-07T14:35:33.828Z,100225.45
2019-02-07T14:38:11.155Z,100218.27
2019-02-07T14:40:40.470Z,100222.01
2019-02-07T14:43:12.018Z,100233.34
2019-02-07T14:45:43.321Z,100231.06
2019-02-07T14:48:14.619Z,100238.00
2019-02-07T14:50:44.517Z,100238.05
2019-02-07T14:53:14.132Z,100231.16
2019-02-07T14:55:43.653Z,100209.68
2019-02-07T14:58:13.162Z,100206.77
2019-02-07T15:00:43.193Z,100198.59
2019-02-07T15:03:12.874Z,100205.55
2019-02-07T15:05:42.879Z,100213.78
2019-02-07T15:08:12.396Z,100210.36
2019-02-07T15:10:42.109Z,100225.47
2019-02-07T15:13:11.690Z,100216.46
2019-02-07T15:15:41.196Z,100213.41
2019-02-07T15:18:10.856Z,100200.10
2019-02-07T15:20:40.846Z,100187.66
2019-02-07T15:23:10.440Z,100191.50
2019-02-07T15:25:39.978Z,100188.04
2019-02-07T15:28:09.499Z,100174.59
2019-02-07T15:30:39.009Z,100185.19
2019-02-07T15:33:08.528Z,100189.41
2019-02-07T15:35:44.334Z,100205.38
2019-02-07T15:38:13.857Z,100218.69
2019-02-07T15:40:44.226Z,100206.17
2019-02-07T15:43:13.898Z,100207.92
2019-02-07T15:45:43.461Z,100202.34
2019-02-07T15:48:13.046Z,100204.47
2019-02-07T15:50:42.654Z,100205.72
2019-02-07T15:53:12.900Z,100207.38
2019-02-07T15:55:42.427Z,100219.38
2019-02-07T15:58:11.928Z,100224.88
2019-02-07T16:00:48.607Z,100218.80
2019-02-07T16:03:35.233Z,100200.59
2019-02-07T16:06:06.473Z,100192.74
2019-02-07T16:08:36.116Z,100211.13
2019-02-07T16:11:06.849Z,100214.08
2019-02-07T16:13:36.643Z,100228.62
2019-02-07T16:16:06.314Z,100224.27
2019-02-07T16:18:35.841Z,100204.38
2019-02-07T16:21:05.856Z,100213.38
2019-02-07T16:23:35.585Z,100219.75
2019-02-07T16:26:05.498Z,100215.78
2019-02-07T16:28:35.012Z,100232.17
2019-02-07T16:31:05.687Z,100210.52
2019-02-07T16:33:35.198Z,100208.25
2019-02-07T16:36:05.750Z,100215.81
2019-02-07T16:38:35.263Z,100234.58
2019-02-07T16:41:05.025Z,100235.62
2019-02-07T16:43:34.691Z,100232.88
2019-02-07T16:46:04.815Z,100236.15
2019-02-07T16:48:34.341Z,100233.05
2019-02-07T16:51:04.241Z,100242.41
2019-02-07T16:53:33.754Z,100240.44
2019-02-07T16:56:03.645Z,100235.37
2019-02-07T16:58:33.437Z,100233.87
2019-02-07T17:01:03.205Z,100233.77
2019-02-07T17:03:32.718Z,100242.22
2019-02-07T17:06:02.482Z,100252.34
2019-02-07T17:08:32.061Z,100261.73
2019-02-07T17:11:02.037Z,100275.57
2019-02-07T17:13:31.724Z,100269.22
2019-02-07T17:16:01.518Z,100270.67
2019-02-07T17:18:31.015Z,100270.26
2019-02-07T17:21:11.200Z,100266.64
2019-02-07T17:23:31.922Z,100260.86
2019-02-07T17:26:01.516Z,100266.30
2019-02-07T17:28:31.286Z,100272.95
2019-02-07T17:31:00.812Z,100278.42
2019-02-07T17:33:30.410Z,100280.87
2019-02-07T17:35:59.930Z,100287.98
2019-02-07T17:38:29.901Z,100284.83
2019-02-07T17:40:59.428Z,100289.41
2019-02-07T17:43:28.951Z,100295.78
2019-02-07T17:45:58.462Z,100282.72
2019-02-07T17:48:27.979Z,100287.11
2019-02-07T17:50:57.587Z,100285.98
2019-02-07T17:53:27.109Z,100282.71
2019-02-07T17:55:56.787Z,100287.63
2019-02-07T17:58:26.290Z,100285.16
2019-02-07T18:01:04.793Z,100295.89
2019-02-07T18:03:34.382Z,100291.09
2019-02-07T18:06:04.764Z,100306.41
2019-02-07T18:08:34.626Z,100298.88
2019-02-07T18:11:04.602Z,100296.44
2019-02-07T18:13:34.286Z,100309.58
2019-02-07T18:16:04.140Z,100311.49
2019-02-07T18:18:33.671Z,100315.08
2019-02-07T18:21:03.252Z,100319.50
2019-02-07T18:23:33.131Z,100320.94
2019-02-07T18:26:02.712Z,100322.88
2019-02-07T18:28:32.246Z,100324.92
2019-02-07T18:31:01.773Z,100321.06
2019-02-07T18:33:31.363Z,100327.21
2019-02-07T18:36:00.940Z,100325.98
2019-02-07T18:38:30.643Z,100327.62
2019-02-07T18:41:00.188Z,100321.94
2019-02-07T18:43:29.704Z,100322.64
2019-02-07T18:45:59.231Z,100322.49
2019-02-07T18:48:28.746Z,100313.77
2019-02-07T18:50:58.288Z,100319.73
2019-02-07T18:53:28.181Z,100310.19
2019-02-07T18:55:57.809Z,100310.47
2019-02-07T18:58:27.327Z,100314.75
2019-02-07T19:00:56.834Z,100317.71
2019-02-07T19:03:26.362Z,100328.42
2019-02-07T19:05:55.881Z,100326.26
2019-02-07T19:08:25.691Z,100330.59
2019-02-07T19:10:55.334Z,100338.76
2019-02-07T19:13:24.866Z,100337.47
2019-02-07T19:15:58.682Z,100339.23
2019-02-07T19:18:28.201Z,100339.35
2019-02-07T19:20:57.739Z,100341.98
2019-02-07T19:23:27.281Z,100350.47
2019-02-07T19:25:56.802Z,100355.16
2019-02-07T19:28:26.314Z,100345.67
2019-02-07T19:30:55.839Z,100343.09
2019-02-07T19:33:25.353Z,100351.64
2019-02-07T19:35:54.906Z,100356.30
2019-02-07T19:38:24.598Z,100343.35
2019-02-07T19:40:54.111Z,100352.05
2019-02-07T19:43:23.635Z,100353.81
2019-02-07T19:45:53.151Z,100356.38
2019-02-07T19:48:22.688Z,100361.07
2019-02-07T19:50:52.203Z,100342.13
2019-02-07T19:53:22.008Z,100347.22
2019-02-07T19:55:51.793Z,100355.70
2019-02-07T19:58:21.321Z,100359.98
2019-02-07T20:00:50.924Z,100365.00
2019-02-07T20:03:20.559Z,100359.73
2019-02-07T20:05:50.107Z,100358.38
2019-02-07T20:08:20.000Z,100354.92
2019-02-07T20:10:49.637Z,100351.03
2019-02-07T20:13:19.152Z,100355.30
2019-02-07T20:15:48.744Z,100357.06
2019-02-07T20:18:18.279Z,100351.03
2019-02-07T20:20:48.076Z,100356.59
2019-02-07T20:23:17.875Z,100365.13
2019-02-07T20:25:47.483Z,100356.05
2019-02-07T20:28:17.006Z,100368.05
2019-02-07T20:33:16.247Z,100380.81
2019-02-07T20:35:45.765Z,100380.68
2019-02-07T20:38:15.293Z,100385.70
2019-02-07T20:40:45.093Z,100390.36
2019-02-07T20:43:14.619Z,100382.63
2019-02-07T20:45:44.143Z,100393.81
2019-02-07T20:48:13.836Z,100390.45
2019-02-07T20:50:43.359Z,100384.89
2019-02-07T20:53:14.519Z,100387.59
2019-02-07T20:55:44.120Z,100395.04
2019-02-07T20:58:13.795Z,100389.89
2019-02-07T21:00:43.514Z,100400.73
2019-02-07T21:03:13.111Z,100401.73
2019-02-07T21:05:42.649Z,100402.70
2019-02-07T21:08:12.175Z,100404.34
2019-02-07T21:10:41.688Z,100406.45
2019-02-07T21:13:11.393Z,100402.55
2019-02-07T21:15:40.960Z,100409.40
2019-02-07T21:18:10.623Z,100412.31
2019-02-07T21:20:40.160Z,100420.80
2019-02-07T21:23:09.875Z,100419.92
2019-02-07T21:25:51.292Z,100416.87
2019-02-07T21:28:20.892Z,100415.11
2019-02-07T21:30:50.418Z,100422.84
2019-02-07T21:33:19.971Z,100414.64
2019-02-07T21:35:49.578Z,100416.33
2019-02-07T21:38:19.140Z,100416.87
2019-02-07T21:40:48.672Z,100426.42
2019-02-07T21:43:18.189Z,100425.61
2019-02-07T21:45:47.949Z,100431.64
2019-02-07T21:48:17.451Z,100431.30
2019-02-07T21:50:46.974Z,100430.00
2019-02-07T21:53:17.140Z,100435.22
2019-02-07T21:55:46.653Z,100436.54
2019-02-07T21:58:16.683Z,100450.71
2019-02-07T22:00:47.769Z,100445.97
2019-02-07T22:03:17.293Z,100444.27
2019-02-07T22:05:46.987Z,100450.84
2019-02-07T22:08:16.840Z,100453.01
2019-02-07T22:10:46.385Z,100456.53
2019-02-07T22:13:16.025Z,100465.14
2019-02-07T22:15:45.501Z,100460.39
2019-02-07T22:18:15.043Z,100466.49
2019-02-07T22:20:44.609Z,100458.77
2019-02-07T22:23:14.305Z,100466.91
2019-02-07T22:25:43.805Z,100465.20
2019-02-07T22:28:13.773Z,100453.14
2019-02-07T22:30:43.302Z,100463.91
2019-02-07T22:33:13.205Z,100463.09
2019-02-07T22:35:42.749Z,100464.45
2019-02-07T22:38:12.406Z,100470.89
2019-02-07T22:40:41.912Z,100469.61
2019-02-07T22:43:11.807Z,100470.89
2019-02-07T22:45:41.287Z,100467.91
2019-02-07T22:48:10.895Z,100468.72
2019-02-07T22:50:40.483Z,100474.76
2019-02-07T22:53:10.180Z,100478.22
2019-02-07T22:55:39.739Z,100490.28
2019-02-07T22:58:09.762Z,100487.64
2019-02-07T23:00:44.310Z,100488.11
2019-02-07T23:03:19.634Z,100488.93
2019-02-07T23:05:49.320Z,100492.33
2019-02-07T23:08:19.167Z,100490.91
2019-02-07T23:10:49.031Z,100505.01
2019-02-07T23:13:18.637Z,100494.23
2019-02-07T23:15:48.306Z,100506.30
2019-02-07T23:18:18.067Z,100499.79
2019-02-07T23:20:47.813Z,100505.76
2019-02-07T23:23:17.421Z,100503.05
2019-02-07T23:25:46.948Z,100506.00
2019-02-07T23:28:16.632Z,100498.27
2019-02-07T23:30:46.497Z,100498.20
2019-02-07T23:33:16.319Z,100501.53
2019-02-07T23:35:45.963Z,100499.77
2019-02-07T23:38:15.533Z,100500.11
2019-02-07T23:40:45.339Z,100497.47
2019-02-07T23:43:15.082Z,100503.02
2019-02-07T23:45:44.729Z,100504.31
2019-02-07T23:48:14.432Z,100509.40
2019-02-07T23:50:44.190Z,100512.38
2019-02-07T23:53:15.424Z,100513.16
2019-02-07T23:55:45.572Z,100512.28
2019-02-07T23:58:15.319Z,100523.47
